• Join FlightAware (Why Join?)
  • Login
  • US Flag 
10:56AM EST


 

Airport Tracker/Info


-or-


 

Live Flight TrackerFlight Track Log ✈ SWA1276 ✈ 21-Apr-2013 ✈ KMCI - KBNA

Flight Track Log - Related Links

Times and Time Zones

All times are in EDT time to prevent confusion due to time zone crossing. See the SWA1276 flight status page for this flight to view local times or setup timezone preferences in your user account.

Time Position Orientation Groundspeed Altitude Reporting Facility
EDT Latitude Longitude Course Direction KTS MPH feet Rate Location/Type
03:28PM 39.2833 -94.7333 226° Southwest 149 171 2,600  Level Kansas City TRACON
03:29PM 39.2333 -94.7333 180° South 235 270 5,200 2,700 Climbing Kansas City TRACON
03:30PM 39.2094 -94.7247 164° South 232 267 6,200 3,300 Climbing Kansas City Center
03:31PM 39.1422 -94.7114 171° South 252 290 9,700 1,800 Climbing Kansas City Center
03:32PM 39.1008 -94.6200 120° Southeast 313 360 10,000 120 Climbing Kansas City Center
03:33PM 39.0994 -94.5078 91° East 327 376 10,000 1,320 Level Kansas City Center
03:34PM 39.0983 -94.3950 91° East 330 380 12,800 3,180 Climbing Kansas City Center
03:35PM 39.0967 -94.2508 91° East 361 415 16,500 3,120 Climbing Kansas City Center
03:36PM 39.0953 -94.1236 91° East 371 427 19,400 2,820 Climbing Kansas City Center
03:37PM 39.0847 -93.9644 95° East 399 459 22,400 2,700 Climbing Kansas City Center
03:38PM 39.0753 -93.8231 95° East 412 474 25,000 2,460 Climbing Kansas City Center
03:39PM 39.0644 -93.6539 95° East 425 489 27,500 2,100 Climbing Kansas City Center
03:40PM 39.0547 -93.5042 95° East 437 503 29,400 1,680 Climbing Kansas City Center
03:41PM 39.0453 -93.3417 94° East 447 514 31,100 1,740 Climbing Kansas City Center
03:42PM 39.0333 -93.1778 95° East 459 528 33,000 1,680 Climbing Kansas City Center
03:43PM 39.0200 -93.0142 96° East 463 533 34,600 1,560 Climbing Kansas City Center
03:44PM 39.0017 -92.8169 97° East 466 536 36,300 1,320 Climbing Kansas City Center
03:45PM 38.9867 -92.6567 97° East 469 540 37,300 1,020 Climbing Kansas City Center
03:46PM 38.9536 -92.4914 104° East 476 548 38,500 780 Climbing Kansas City Center
03:47PM 38.8772 -92.3508 125° Southeast 477 549 39,000 240 Climbing Kansas City Center
03:48PM 38.7981 -92.2108 126° Southeast 480 552 39,000  Level Kansas City Center
03:49PM 38.7058 -92.0444 125° Southeast 476 548 39,000  Level Kansas City Center
03:50PM 38.6286 -91.9044 125° Southeast 477 549 39,000  Level Kansas City Center
03:51PM 38.5511 -91.7675 126° Southeast 475 547 39,000  Level Kansas City Center
03:52PM 38.4747 -91.6300 125° Southeast 472 543 39,000  Level Kansas City Center
03:53PM 38.3961 -91.4944 126° Southeast 470 541 39,000  Level Kansas City Center
03:54PM 38.3206 -91.3597 126° Southeast 469 540 39,000  Level Kansas City Center
03:56PM 38.2439 -91.2253 126° Southeast 469 540 39,000  Level Kansas City Center
03:57PM 38.1689 -91.0928 126° Southeast 468 539 39,000  Level Kansas City Center
03:58PM 38.0789 -90.9342 126° Southeast 466 536 39,000  Level Kansas City Center
03:59PM 38.0022 -90.8011 126° Southeast 470 541 39,000  Level Kansas City Center
04:00PM 37.9111 -90.6431 126° Southeast 469 540 39,000  Level Kansas City Center
04:01PM 37.8628 -90.4925 112° Southeast 466 536 39,000 -120 Level Kansas City Center
04:02PM 37.8256 -90.3319 106° East 473 544 38,800 -780 Descending Kansas City Center
04:04PM 37.7453 -89.9833 106° East 473 544 36,600 -1,080 Descending Kansas City Center
04:05PM 37.7092 -89.8306 107° East 467 537 35,600 -840 Descending Kansas City Center
04:06PM 37.6733 -89.6803 107° East 459 528 35,000 -660 Descending Kansas City Center
04:07PM 37.6381 -89.5336 107° East 451 519 34,300 -900 Descending Kansas City Center
04:08PM 37.5972 -89.3606 107° East 434 499 33,100 -660 Descending Kansas City Center
04:09PM 37.5628 -89.2192 107° East 423 487 33,000 -60 Descending Kansas City Center
04:10PM 37.5361 -89.1094 107° East 416 479 33,000  Level Memphis Center
04:11PM 37.5011 -88.9636 107° East 416 479 33,000  Level Memphis Center
04:12PM 37.4661 -88.8206 107° East 421 484 33,000  Level Memphis Center
04:13PM 37.4308 -88.6750 107° East 421 484 33,000 -180 Level Memphis Center
04:14PM 37.3956 -88.5347 108° East 421 484 32,700 -600 Descending Memphis Center
04:15PM 37.3581 -88.3922 108° East 421 484 31,800 -1,020 Descending Memphis Center
04:16PM 37.3244 -88.2494 106° East 421 484 30,700 -1,080 Descending Memphis Center
04:17PM 37.2886 -88.1097 108° East 421 484 29,700 -1,080 Descending Memphis Center
04:18PM 37.2461 -87.9544 109° East 426 490 28,600 -960 Descending Memphis Center
04:19PM 37.2064 -87.8386 113° Southeast 413 475 27,800 -900 Descending Memphis Center
04:20PM 37.1456 -87.7233 123° Southeast 403 464 26,800 -1,020 Descending Memphis Center
04:21PM 37.0869 -87.6108 123° Southeast 392 451 25,800 -1,380 Descending Memphis Center
04:22PM 37.0281 -87.4986 123° Southeast 392 451 24,100 -1,800 Descending Memphis Center
04:22PM 37.0042 -87.4553 125° Southeast 384 442 23,400 -1,800 Descending Memphis Center
04:23PM 36.9714 -87.3864 121° Southeast 387 445 22,300 -1,800 Descending Memphis Center
04:24PM 36.9389 -87.3356 129° Southeast 368 423 21,400 -1,800 Descending Memphis Center
04:24PM 36.9144 -87.2822 120° Southeast 381 438 20,500 -1,680 Descending Memphis Center
04:25PM 36.8556 -87.1728 124° Southeast 364 419 18,800 -1,620 Descending Memphis Center
04:26PM 36.7947 -87.0819 130° Southeast 353 406 17,300 -1,680 Descending Memphis Center
04:27PM 36.7100 -87.0311 154° Southeast 330 380 15,500 -1,800 Descending Memphis Center
04:28PM 36.6275 -86.9828 155° Southeast 328 377 13,700 -1,800 Descending Memphis Center
04:29PM 36.5511 -86.9369 154° Southeast 318 366 12,000 -1,680 Descending Memphis Center
04:30PM 36.4747 -86.8886 153° Southeast 307 353 10,400 -1,260 Descending Memphis Center
04:31PM 36.4050 -86.8478 155° Southeast 294 338 9,500 -1,080 Descending Memphis Center
04:32PM 36.3433 -86.8067 152° Southeast 288 331 8,300 -1,260 Descending Memphis Center
04:33PM 36.2756 -86.7708 157° South 277 319 7,000 -1,320 Descending Memphis Center
04:34PM 36.2003 -86.7589 173° South 253 291 5,700 -1,020 Descending Memphis Center
04:35PM 36.1342 -86.7875 199° South 253 291 5,000 -360 Descending Memphis Center
04:36PM 36.0767 -86.8131 200° South 239 275 5,000 -300 Level Memphis Center
04:37PM 36.0264 -86.8100 177° South 185 213 4,500 -960 Descending Memphis Center
04:38PM 36.0269 -86.7561 89° East 115 132 3,100 -1,320 Descending Memphis Center
04:39PM 36.0486 -86.7089 60° Northeast 115 132 1,900 -1,080 Descending Memphis Center
04:40PM 36.0836 -86.6947 18° North 115 132 1,000 3,540 Descending Memphis Center
04:41PM 36.1206 -86.6775 21° North 127 146 9,000 960 Climbing Memphis Center
04:42PM 36.1167 -86.6133 94° East 132 152 3,000 -3,300 Descending Memphis Center
04:43PM 36.0728 -86.6078 174° South 127 146 2,500 -240 Descending Memphis Center
04:44PM 36.0322 -86.6481 219° Southwest 169 194 2,600 -360 Climbing Memphis Center
04:45PM 36.0525 -86.6986 296° West 143 165 1,800 -900 Descending Memphis Center
04:46PM 36.0897 -86.6944 North 99 114 900 -540 Descending Memphis Center
04:47PM 36.1192 -86.7033 346° North 99 114 800 -120 Descending Memphis Center
04:49PM 36.1245 -86.6782 22° Northeast  Level Estimated
04:56PM 36.1245 -86.6782 22° Northeast  Level Estimated